ADDS METAR Data INFO
IDs: Format: Raw Decoded Include TAF

Data at: 0759 UTC 23 Jul 2018

KDMN 230753Z AUTO 22008KT 10SM CLR 27/11 A3005 RMK AO2 SLP079 T02670111
KDMN 230653Z AUTO 20008KT 10SM CLR 27/11 A3006 RMK AO2 SLP084 T02720111 404000222
KDMN 230553Z AUTO 29009KT 10SM CLR 29/11 A3006 RMK AO2 SLP084 T02940111 10394 20294 50008
KDMN 230453Z AUTO 30007KT 10SM CLR 30/11 A3008 RMK AO2 SLP089 T03000111
KDMN 230353Z AUTO 30006KT 10SM CLR 32/10 A3007 RMK AO2 SLP087 T03170100
KDMN 230253Z AUTO 27005KT 10SM CLR 33/11 A3004 RMK AO2 SLP079 T03280106 53003
KDMN 230153Z AUTO 26004KT 10SM CLR 37/09 A3002 RMK AO2 SLP073 T03670094
KDMN 230053Z AUTO 10SM CLR 38/09 A3002 RMK AO2 SLP073 T03830089
KDMN 222353Z AUTO 29007KT 10SM CLR 39/08 A3003 RMK AO2 SLP073 T03940078 10400 20356 56015
KDMN 222253Z AUTO 31013G20KT 10SM CLR 40/08 A3004 RMK AO2 SLP076 T04000083
KDMN 222153Z AUTO 00000KT 10SM CLR 39/07 A3005 RMK AO2 SLP082 T03890072
KDMN 222053Z AUTO 26008G16KT 220V290 10SM CLR 39/08 A3007 RMK AO2 SLP089 T03890083 58017
KDMN 221953Z AUTO 16005KT 10SM CLR 38/09 A3009 RMK AO2 SLP096 T03830089
KDMN 221853Z AUTO VRB04KT 10SM CLR 37/09 A3012 RMK AO2 SLP103 T03670094
KDMN 221753Z AUTO 00000KT 10SM CLR 36/12 A3013 RMK AO2 SLP109 T03610117 10361 20222 58008
KDMN 221653Z AUTO VRB03KT 10SM CLR 34/13 A3015 RMK AO2 SLP114 T03440133
KDMN 221553Z AUTO 00000KT 10SM CLR 32/14 A3016 RMK AO2 SLP119 T03170139
KDMN 221453Z AUTO 00000KT 10SM CLR 29/14 A3016 RMK AO2 SLP122 T02890144 51005
KDMN 221353Z AUTO 00000KT 10SM FEW120 26/15 A3016 RMK AO2 SLP122 T02560150
KDMN 221253Z AUTO 00000KT 10SM BKN120 23/15 A3015 RMK AO2 SLP122 T02280150
KDMN 221153Z AUTO VRB03KT 10SM CLR 23/15 A3014 RMK AO2 SLP116 T02330150 10283 20228 53008
KDMN 221053Z AUTO 21004KT 10SM CLR 24/15 A3013 RMK AO2 SLP112 T02390150
KDMN 220953Z AUTO 26006KT 10SM CLR 25/15 A3012 RMK AO2 SLP104 T02500150
KDMN 220853Z AUTO 20007KT 10SM CLR 25/15 A3012 RMK AO2 SLP104 T02500150 55003
KDMN 220753Z AUTO 24006KT 10SM CLR 26/14 A3011 RMK AO2 SLP104 T02610144
KDMN 220653Z AUTO 22006KT 10SM CLR 27/14 A3012 RMK AO2 SLP107 T02720144 403830206
KDMN 220553Z AUTO 23005KT 10SM SCT120 28/15 A3013 RMK AO2 SLP109 T02830150 10372 20283 51016
KDMN 220453Z AUTO 29008KT 10SM CLR 29/14 A3012 RMK AO2 SLP109 T02940139
KDMN 220353Z AUTO 27009KT 10SM CLR 31/14 A3010 RMK AO2 SLP104 T03060139
KDMN 220253Z AUTO 26010KT 10SM CLR 32/14 A3007 RMK AO2 SLP094 T03220139 53007
KDMN 220153Z AUTO 23003KT 10SM CLR 36/05 A3004 RMK AO2 SLP083 T03560050
KDMN 220053Z AUTO 00000KT 10SM CLR 37/04 A3003 RMK AO2 SLP081 T03720044
KDMN 212353Z AUTO 26004KT 10SM CLR 38/06 A3004 RMK AO2 SLP084 T03780056 10383 20339 56009
KDMN 212253Z AUTO 10008KT 10SM CLR 37/06 A3004 RMK AO2 SLP085 T03720061
KDMN 212153Z AUTO 00000KT 10SM SCT120 38/08 A3005 RMK AO2 SLP087 T03780083
KDMN 212053Z AUTO 20008KT 10SM SCT110 38/10 A3008 RMK AO2 SLP095 T03780100 58014